sensor_id;sensor_type;location;lat;lon;timestamp;pressure;altitude;pressure_sealevel;temperature;humidity
77227;BME280;66234;47.642;19.144;2023-04-03T00:01:13;100203.19;;;7.63;61.44
77227;BME280;66234;47.642;19.144;2023-04-03T00:04:17;100207.75;;;7.69;62.54
77227;BME280;66234;47.642;19.144;2023-04-03T00:07:20;100210.09;;;7.79;61.49
77227;BME280;66234;47.642;19.144;2023-04-03T00:10:23;100204.44;;;7.67;61.08
77227;BME280;66234;47.642;19.144;2023-04-03T00:13:25;100205.53;;;7.73;61.98
77227;BME280;66234;47.642;19.144;2023-04-03T00:16:28;100204.44;;;7.67;61.81
77227;BME280;66234;47.642;19.144;2023-04-03T00:19:31;100213.06;;;7.69;62.18
77227;BME280;66234;47.642;19.144;2023-04-03T00:22:33;100212.22;;;7.69;62.75
77227;BME280;66234;47.642;19.144;2023-04-03T00:25:36;100210.84;;;7.73;61.73
77227;BME280;66234;47.642;19.144;2023-04-03T00:28:39;100209.41;;;7.70;62.36
77227;BME280;66234;47.642;19.144;2023-04-03T00:31:41;100209.84;;;7.74;61.31
77227;BME280;66234;47.642;19.144;2023-04-03T00:34:44;100218.31;;;7.63;60.35
77227;BME280;66234;47.642;19.144;2023-04-03T00:37:47;100220.56;;;7.59;61.38
77227;BME280;66234;47.642;19.144;2023-04-03T00:40:50;100224.38;;;7.57;61.59
77227;BME280;66234;47.642;19.144;2023-04-03T00:43:53;100223.78;;;7.55;61.62
77227;BME280;66234;47.642;19.144;2023-04-03T00:46:55;100226.63;;;7.53;61.85
77227;BME280;66234;47.642;19.144;2023-04-03T00:49:58;100223.13;;;7.53;61.62
77227;BME280;66234;47.642;19.144;2023-04-03T00:53:01;100231.88;;;7.47;61.20
77227;BME280;66234;47.642;19.144;2023-04-03T00:56:07;100223.34;;;7.37;61.17
77227;BME280;66234;47.642;19.144;2023-04-03T00:59:15;100231.63;;;7.27;60.73
77227;BME280;66234;47.642;19.144;2023-04-03T01:02:19;100231.63;;;7.27;61.28
77227;BME280;66234;47.642;19.144;2023-04-03T01:05:21;100240.06;;;7.31;60.95
77227;BME280;66234;47.642;19.144;2023-04-03T01:08:24;100239.22;;;7.30;59.77
77227;BME280;66234;47.642;19.144;2023-04-03T01:11:28;100236.94;;;7.27;61.04
77227;BME280;66234;47.642;19.144;2023-04-03T01:14:30;100243.09;;;7.28;60.39
77227;BME280;66234;47.642;19.144;2023-04-03T01:17:48;100242.06;;;7.29;61.08
77227;BME280;66234;47.642;19.144;2023-04-03T01:24:36;100240.44;;;7.28;59.69
77227;BME280;66234;47.642;19.144;2023-04-03T01:27:44;100237.94;;;7.26;59.68
77227;BME280;66234;47.642;19.144;2023-04-03T01:33:53;100250.34;;;7.19;59.96
77227;BME280;66234;47.642;19.144;2023-04-03T01:36:56;100244.56;;;7.16;59.79
77227;BME280;66234;47.642;19.144;2023-04-03T01:39:59;100242.91;;;7.15;59.37
77227;BME280;66234;47.642;19.144;2023-04-03T01:43:02;100236.13;;;7.27;59.24
77227;BME280;66234;47.642;19.144;2023-04-03T01:46:04;100246.75;;;7.27;59.54
77227;BME280;66234;47.642;19.144;2023-04-03T01:49:07;100254.66;;;7.20;59.32
77227;BME280;66234;47.642;19.144;2023-04-03T01:52:10;100244.47;;;7.24;60.50
77227;BME280;66234;47.642;19.144;2023-04-03T01:55:12;100240.50;;;7.34;60.33
77227;BME280;66234;47.642;19.144;2023-04-03T01:58:15;100250.88;;;7.44;60.56
77227;BME280;66234;47.642;19.144;2023-04-03T02:01:18;100252.03;;;7.56;57.81
77227;BME280;66234;47.642;19.144;2023-04-03T02:04:20;100256.19;;;7.44;59.03
77227;BME280;66234;47.642;19.144;2023-04-03T02:07:23;100255.63;;;7.34;59.40
77227;BME280;66234;47.642;19.144;2023-04-03T02:10:26;100257.78;;;7.24;59.82
77227;BME280;66234;47.642;19.144;2023-04-03T02:13:29;100250.41;;;7.26;59.84
77227;BME280;66234;47.642;19.144;2023-04-03T02:16:31;100257.31;;;7.20;59.36
77227;BME280;66234;47.642;19.144;2023-04-03T02:19:35;100256.84;;;7.17;59.50
77227;BME280;66234;47.642;19.144;2023-04-03T02:22:38;100260.06;;;7.12;60.18
77227;BME280;66234;47.642;19.144;2023-04-03T02:25:40;100261.28;;;7.10;60.49
77227;BME280;66234;47.642;19.144;2023-04-03T02:28:43;100259.25;;;6.97;59.39
77227;BME280;66234;47.642;19.144;2023-04-03T02:31:45;100261.25;;;6.95;59.41
77227;BME280;66234;47.642;19.144;2023-04-03T02:34:49;100264.38;;;6.99;59.61
77227;BME280;66234;47.642;19.144;2023-04-03T02:37:52;100260.44;;;6.95;60.05
77227;BME280;66234;47.642;19.144;2023-04-03T02:41:06;100258.31;;;6.90;60.31
77227;BME280;66234;47.642;19.144;2023-04-03T02:44:10;100260.19;;;6.90;60.17
77227;BME280;66234;47.642;19.144;2023-04-03T02:47:13;100265.03;;;6.86;60.37
77227;BME280;66234;47.642;19.144;2023-04-03T02:50:16;100260.25;;;6.82;59.79
77227;BME280;66234;47.642;19.144;2023-04-03T02:53:18;100261.91;;;6.83;61.18
77227;BME280;66234;47.642;19.144;2023-04-03T02:56:23;100263.66;;;6.76;59.88
77227;BME280;66234;47.642;19.144;2023-04-03T02:59:25;100268.69;;;6.85;59.06
77227;BME280;66234;47.642;19.144;2023-04-03T03:02:28;100273.16;;;6.70;59.94
77227;BME280;66234;47.642;19.144;2023-04-03T03:05:31;100262.41;;;6.49;59.40
77227;BME280;66234;47.642;19.144;2023-04-03T03:08:35;100266.81;;;6.56;59.91
77227;BME280;66234;47.642;19.144;2023-04-03T03:11:37;100265.00;;;6.57;60.25
77227;BME280;66234;47.642;19.144;2023-04-03T03:14:40;100264.06;;;6.50;60.27
77227;BME280;66234;47.642;19.144;2023-04-03T03:17:45;100265.91;;;6.49;59.65
77227;BME280;66234;47.642;19.144;2023-04-03T03:20:55;100259.47;;;6.44;59.91
77227;BME280;66234;47.642;19.144;2023-04-03T03:23:58;100261.31;;;6.43;60.77
77227;BME280;66234;47.642;19.144;2023-04-03T03:27:01;100261.56;;;6.34;60.70
77227;BME280;66234;47.642;19.144;2023-04-03T03:30:04;100273.53;;;6.30;61.61
77227;BME280;66234;47.642;19.144;2023-04-03T03:33:08;100270.34;;;6.34;59.83
77227;BME280;66234;47.642;19.144;2023-04-03T03:36:11;100274.13;;;6.17;60.78
77227;BME280;66234;47.642;19.144;2023-04-03T03:39:14;100283.53;;;6.05;60.39
77227;BME280;66234;47.642;19.144;2023-04-03T03:42:17;100282.47;;;5.92;61.63
77227;BME280;66234;47.642;19.144;2023-04-03T03:45:20;100281.19;;;5.88;61.62
77227;BME280;66234;47.642;19.144;2023-04-03T03:48:23;100279.69;;;5.77;61.19
77227;BME280;66234;47.642;19.144;2023-04-03T03:51:26;100273.75;;;5.75;61.27
77227;BME280;66234;47.642;19.144;2023-04-03T03:54:28;100275.59;;;5.75;61.32
77227;BME280;66234;47.642;19.144;2023-04-03T03:57:32;100270.16;;;5.68;61.47
77227;BME280;66234;47.642;19.144;2023-04-03T04:00:35;100270.84;;;5.62;61.70
77227;BME280;66234;47.642;19.144;2023-04-03T04:03:39;100272.31;;;5.65;61.72
77227;BME280;66234;47.642;19.144;2023-04-03T04:06:43;100278.03;;;5.54;61.64
77227;BME280;66234;47.642;19.144;2023-04-03T04:09:47;100271.69;;;5.63;61.81
77227;BME280;66234;47.642;19.144;2023-04-03T04:12:49;100272.38;;;5.57;61.81
77227;BME280;66234;47.642;19.144;2023-04-03T04:15:57;100279.94;;;5.37;62.32
77227;BME280;66234;47.642;19.144;2023-04-03T04:18:59;100271.69;;;5.32;62.51
77227;BME280;66234;47.642;19.144;2023-04-03T04:22:03;100275.31;;;5.31;63.07
77227;BME280;66234;47.642;19.144;2023-04-03T04:25:07;100279.31;;;5.27;63.32
77227;BME280;66234;47.642;19.144;2023-04-03T04:28:12;100282.88;;;5.12;63.38
77227;BME280;66234;47.642;19.144;2023-04-03T04:31:15;100283.06;;;5.02;63.92
77227;BME280;66234;47.642;19.144;2023-04-03T04:34:17;100292.38;;;4.90;64.36
77227;BME280;66234;47.642;19.144;2023-04-03T04:37:21;100290.88;;;4.87;64.39
77227;BME280;66234;47.642;19.144;2023-04-03T04:40:24;100297.34;;;4.85;64.14
77227;BME280;66234;47.642;19.144;2023-04-03T04:43:27;100297.50;;;4.83;64.29
77227;BME280;66234;47.642;19.144;2023-04-03T04:46:30;100304.47;;;4.84;64.02
77227;BME280;66234;47.642;19.144;2023-04-03T04:49:34;100298.31;;;4.92;64.35
77227;BME280;66234;47.642;19.144;2023-04-03T04:52:38;100298.63;;;4.97;63.98
77227;BME280;66234;47.642;19.144;2023-04-03T04:55:42;100299.31;;;4.99;63.83
77227;BME280;66234;47.642;19.144;2023-04-03T04:58:45;100301.09;;;5.06;63.51
77227;BME280;66234;47.642;19.144;2023-04-03T05:01:48;100305.03;;;5.10;63.70
77227;BME280;66234;47.642;19.144;2023-04-03T05:04:51;100298.94;;;5.10;63.30
77227;BME280;66234;47.642;19.144;2023-04-03T05:08:00;100306.53;;;5.13;63.78
77227;BME280;66234;47.642;19.144;2023-04-03T05:11:03;100315.63;;;5.19;63.33
77227;BME280;66234;47.642;19.144;2023-04-03T05:14:07;100322.72;;;5.26;64.00
77227;BME280;66234;47.642;19.144;2023-04-03T05:17:11;100321.22;;;5.32;63.65
77227;BME280;66234;47.642;19.144;2023-04-03T05:20:18;100320.22;;;5.33;62.83
77227;BME280;66234;47.642;19.144;2023-04-03T05:23:22;100321.72;;;5.35;63.49
77227;BME280;66234;47.642;19.144;2023-04-03T05:26:25;100329.50;;;5.37;63.48
77227;BME280;66234;47.642;19.144;2023-04-03T05:29:28;100326.19;;;5.35;63.31
77227;BME280;66234;47.642;19.144;2023-04-03T05:32:33;100326.97;;;5.43;63.54
77227;BME280;66234;47.642;19.144;2023-04-03T05:35:47;100326.59;;;5.46;62.85
77227;BME280;66234;47.642;19.144;2023-04-03T05:38:54;100326.66;;;5.38;62.95
77227;BME280;66234;47.642;19.144;2023-04-03T05:42:00;100326.72;;;5.22;63.94
77227;BME280;66234;47.642;19.144;2023-04-03T05:45:03;100329.38;;;5.22;65.22
77227;BME280;66234;47.642;19.144;2023-04-03T05:48:06;100324.78;;;5.08;64.18
77227;BME280;66234;47.642;19.144;2023-04-03T05:51:16;100330.75;;;5.10;64.74
77227;BME280;66234;47.642;19.144;2023-04-03T05:54:26;100337.69;;;5.11;65.67
77227;BME280;66234;47.642;19.144;2023-04-03T05:57:46;100342.13;;;5.19;65.26
77227;BME280;66234;47.642;19.144;2023-04-03T06:00:49;100343.41;;;5.31;64.56
77227;BME280;66234;47.642;19.144;2023-04-03T06:03:52;100341.25;;;5.34;63.54
77227;BME280;66234;47.642;19.144;2023-04-03T06:07:01;100342.84;;;5.51;63.74
77227;BME280;66234;47.642;19.144;2023-04-03T06:10:06;100343.75;;;5.66;62.60
77227;BME280;66234;47.642;19.144;2023-04-03T06:13:09;100355.00;;;5.76;63.07
77227;BME280;66234;47.642;19.144;2023-04-03T06:16:14;100355.75;;;5.93;62.26
77227;BME280;66234;47.642;19.144;2023-04-03T06:19:20;100351.59;;;5.98;62.32
77227;BME280;66234;47.642;19.144;2023-04-03T06:22:26;100350.66;;;6.14;59.95
77227;BME280;66234;47.642;19.144;2023-04-03T06:25:32;100351.91;;;6.26;59.03
77227;BME280;66234;47.642;19.144;2023-04-03T06:28:35;100348.78;;;6.45;58.81
77227;BME280;66234;47.642;19.144;2023-04-03T06:31:38;100351.47;;;6.59;58.67
77227;BME280;66234;47.642;19.144;2023-04-03T06:34:42;100357.94;;;6.80;57.95
77227;BME280;66234;47.642;19.144;2023-04-03T06:37:44;100356.13;;;6.95;57.12
77227;BME280;66234;47.642;19.144;2023-04-03T06:40:47;100363.66;;;6.91;57.40
77227;BME280;66234;47.642;19.144;2023-04-03T06:43:50;100357.72;;;7.18;56.11
77227;BME280;66234;47.642;19.144;2023-04-03T06:46:53;100366.34;;;7.35;55.15
77227;BME280;66234;47.642;19.144;2023-04-03T06:49:57;100361.75;;;7.43;55.55
77227;BME280;66234;47.642;19.144;2023-04-03T06:53:00;100359.09;;;7.43;55.08
77227;BME280;66234;47.642;19.144;2023-04-03T06:56:03;100366.63;;;7.54;54.53
77227;BME280;66234;47.642;19.144;2023-04-03T06:59:06;100368.16;;;7.63;53.90
77227;BME280;66234;47.642;19.144;2023-04-03T07:02:11;100371.25;;;7.81;53.75
77227;BME280;66234;47.642;19.144;2023-04-03T07:05:15;100380.34;;;7.87;51.48
77227;BME280;66234;47.642;19.144;2023-04-03T07:08:18;100377.88;;;7.85;52.74
77227;BME280;66234;47.642;19.144;2023-04-03T07:11:21;100380.25;;;7.95;52.06
77227;BME280;66234;47.642;19.144;2023-04-03T07:14:23;100391.88;;;7.94;51.92
77227;BME280;66234;47.642;19.144;2023-04-03T07:17:26;100386.53;;;8.08;51.54
77227;BME280;66234;47.642;19.144;2023-04-03T07:20:29;100389.84;;;8.10;51.49
77227;BME280;66234;47.642;19.144;2023-04-03T07:23:32;100390.66;;;8.25;51.88
77227;BME280;66234;47.642;19.144;2023-04-03T07:26:35;100391.72;;;8.31;52.26
77227;BME280;66234;47.642;19.144;2023-04-03T07:29:38;100395.38;;;8.45;51.14
77227;BME280;66234;47.642;19.144;2023-04-03T07:32:42;100387.03;;;8.54;51.73
77227;BME280;66234;47.642;19.144;2023-04-03T07:35:45;100385.56;;;8.94;49.89
77227;BME280;66234;47.642;19.144;2023-04-03T07:38:48;100390.56;;;9.03;48.20
77227;BME280;66234;47.642;19.144;2023-04-03T07:41:51;100393.88;;;8.84;48.77
77227;BME280;66234;47.642;19.144;2023-04-03T07:44:54;100391.47;;;9.17;47.98
77227;BME280;66234;47.642;19.144;2023-04-03T07:47:56;100390.09;;;9.27;47.84
77227;BME280;66234;47.642;19.144;2023-04-03T07:51:01;100398.31;;;9.26;47.69
77227;BME280;66234;47.642;19.144;2023-04-03T07:54:04;100388.94;;;9.36;47.16
77227;BME280;66234;47.642;19.144;2023-04-03T07:57:06;100387.16;;;9.50;47.78
77227;BME280;66234;47.642;19.144;2023-04-03T08:00:10;100399.81;;;9.69;47.71
77227;BME280;66234;47.642;19.144;2023-04-03T08:03:15;100393.63;;;9.68;47.05
77227;BME280;66234;47.642;19.144;2023-04-03T08:06:19;100392.75;;;9.55;47.73
77227;BME280;66234;47.642;19.144;2023-04-03T08:09:39;100400.13;;;9.25;48.60
77227;BME280;66234;47.642;19.144;2023-04-03T08:12:45;100398.97;;;8.79;49.30
77227;BME280;66234;47.642;19.144;2023-04-03T08:15:50;100405.94;;;8.80;50.12
77227;BME280;66234;47.642;19.144;2023-04-03T08:18:54;100411.34;;;8.45;49.54
77227;BME280;66234;47.642;19.144;2023-04-03T08:21:57;100407.22;;;8.42;49.75
77227;BME280;66234;47.642;19.144;2023-04-03T08:25:01;100403.84;;;8.19;49.76
77227;BME280;66234;47.642;19.144;2023-04-03T08:28:05;100422.88;;;8.30;49.13
77227;BME280;66234;47.642;19.144;2023-04-03T08:31:11;100404.63;;;8.49;48.74
77227;BME280;66234;47.642;19.144;2023-04-03T08:34:14;100406.97;;;8.79;49.44
77227;BME280;66234;47.642;19.144;2023-04-03T08:37:17;100399.50;;;8.96;50.12
77227;BME280;66234;47.642;19.144;2023-04-03T08:40:21;100405.53;;;9.32;48.68
77227;BME280;66234;47.642;19.144;2023-04-03T08:50:17;100402.47;;;9.07;47.67
77227;BME280;66234;47.642;19.144;2023-04-03T08:53:23;100402.94;;;8.90;47.08
77227;BME280;66234;47.642;19.144;2023-04-03T08:56:30;100398.84;;;9.15;46.72
77227;BME280;66234;47.642;19.144;2023-04-03T08:59:35;100388.28;;;9.62;46.15
77227;BME280;66234;47.642;19.144;2023-04-03T09:02:49;100393.91;;;9.80;46.50
77227;BME280;66234;47.642;19.144;2023-04-03T09:05:57;100389.84;;;9.90;46.04
77227;BME280;66234;47.642;19.144;2023-04-03T09:12:45;100392.06;;;9.87;45.49
77227;BME280;66234;47.642;19.144;2023-04-03T09:15:53;100399.41;;;10.13;44.51
77227;BME280;66234;47.642;19.144;2023-04-03T09:22:42;100394.81;;;10.80;42.93
77227;BME280;66234;47.642;19.144;2023-04-03T09:25:58;100399.75;;;10.96;42.31
77227;BME280;66234;47.642;19.144;2023-04-03T09:29:06;100400.53;;;11.35;40.79
77227;BME280;66234;47.642;19.144;2023-04-03T09:32:25;100396.22;;;11.41;40.98
77227;BME280;66234;47.642;19.144;2023-04-03T09:35:31;100404.28;;;11.02;41.27
77227;BME280;66234;47.642;19.144;2023-04-03T09:39:04;100416.63;;;11.09;42.04
77227;BME280;66234;47.642;19.144;2023-04-03T09:42:35;100403.25;;;11.29;40.24
77227;BME280;66234;47.642;19.144;2023-04-03T09:45:48;100403.88;;;11.18;41.41
77227;BME280;66234;47.642;19.144;2023-04-03T09:48:56;100404.88;;;11.43;39.76
77227;BME280;66234;47.642;19.144;2023-04-03T09:52:25;100403.63;;;11.39;39.47
77227;BME280;66234;47.642;19.144;2023-04-03T09:55:28;100402.00;;;11.44;39.00
77227;BME280;66234;47.642;19.144;2023-04-03T09:58:42;100400.75;;;11.40;40.13
77227;BME280;66234;47.642;19.144;2023-04-03T10:05:41;100409.63;;;10.69;40.87
77227;BME280;66234;47.642;19.144;2023-04-03T10:09:01;100408.16;;;10.60;41.60
77227;BME280;66234;47.642;19.144;2023-04-03T10:12:09;100410.06;;;10.99;41.70
77227;BME280;66234;47.642;19.144;2023-04-03T10:15:14;100410.06;;;11.05;41.85
77227;BME280;66234;47.642;19.144;2023-04-03T10:18:42;100414.59;;;10.92;41.68
77227;BME280;66234;47.642;19.144;2023-04-03T10:21:59;100412.75;;;10.86;43.19
77227;BME280;66234;47.642;19.144;2023-04-03T10:25:07;100413.97;;;11.29;42.27
77227;BME280;66234;47.642;19.144;2023-04-03T10:28:25;100412.06;;;11.49;42.80
77227;BME280;66234;47.642;19.144;2023-04-03T10:34:56;100407.22;;;12.03;40.55
77227;BME280;66234;47.642;19.144;2023-04-03T10:52:24;100402.38;;;11.61;38.94
77227;BME280;66234;47.642;19.144;2023-04-03T10:55:51;100408.09;;;11.84;38.48
77227;BME280;66234;47.642;19.144;2023-04-03T11:02:18;100397.56;;;11.89;38.32
77227;BME280;66234;47.642;19.144;2023-04-03T11:05:30;100398.22;;;11.85;37.99
77227;BME280;66234;47.642;19.144;2023-04-03T11:08:54;100396.59;;;11.71;37.63
77227;BME280;66234;47.642;19.144;2023-04-03T11:13:10;100400.94;;;11.52;38.81
77227;BME280;66234;47.642;19.144;2023-04-03T11:15:53;100402.38;;;11.54;39.26
77227;BME280;66234;47.642;19.144;2023-04-03T11:22:08;100401.38;;;11.49;40.31
77227;BME280;66234;47.642;19.144;2023-04-03T11:25:22;100393.97;;;11.44;39.25
77227;BME280;66234;47.642;19.144;2023-04-03T11:28:26;100389.84;;;11.35;40.02
77227;BME280;66234;47.642;19.144;2023-04-03T11:31:41;100391.09;;;11.33;38.94
77227;BME280;66234;47.642;19.144;2023-04-03T11:34:50;100387.78;;;11.44;39.38
77227;BME280;66234;47.642;19.144;2023-04-03T11:37:56;100385.31;;;11.49;39.43
77227;BME280;66234;47.642;19.144;2023-04-03T11:41:01;100377.91;;;11.38;39.06
77227;BME280;66234;47.642;19.144;2023-04-03T11:44:23;100371.72;;;11.37;39.51
77227;BME280;66234;47.642;19.144;2023-04-03T11:47:49;100371.25;;;11.67;38.77
77227;BME280;66234;47.642;19.144;2023-04-03T11:50:53;100369.00;;;11.63;39.23
77227;BME280;66234;47.642;19.144;2023-04-03T11:58:32;100372.28;;;11.79;39.29
77227;BME280;66234;47.642;19.144;2023-04-03T12:01:11;100371.47;;;11.58;38.95
77227;BME280;66234;47.642;19.144;2023-04-03T12:04:15;100373.31;;;11.71;39.16
77227;BME280;66234;47.642;19.144;2023-04-03T12:07:19;100361.22;;;11.49;39.20
77227;BME280;66234;47.642;19.144;2023-04-03T12:10:22;100368.81;;;11.45;39.19
77227;BME280;66234;47.642;19.144;2023-04-03T12:13:28;100370.88;;;11.63;38.34
77227;BME280;66234;47.642;19.144;2023-04-03T12:19:44;100367.78;;;11.53;39.58
77227;BME280;66234;47.642;19.144;2023-04-03T12:26:28;100364.47;;;11.57;38.73
77227;BME280;66234;47.642;19.144;2023-04-03T12:33:38;100365.03;;;11.86;38.45
77227;BME280;66234;47.642;19.144;2023-04-03T12:40:15;100352.81;;;11.96;38.31
77227;BME280;66234;47.642;19.144;2023-04-03T12:46:39;100351.56;;;11.99;37.73
77227;BME280;66234;47.642;19.144;2023-04-03T12:49:45;100346.25;;;11.92;37.12
77227;BME280;66234;47.642;19.144;2023-04-03T12:52:52;100345.47;;;12.16;36.97
77227;BME280;66234;47.642;19.144;2023-04-03T12:56:25;100343.59;;;12.23;36.00
77227;BME280;66234;47.642;19.144;2023-04-03T12:59:28;100346.72;;;12.20;36.09
77227;BME280;66234;47.642;19.144;2023-04-03T13:02:32;100345.50;;;12.10;36.18
77227;BME280;66234;47.642;19.144;2023-04-03T13:05:44;100347.13;;;11.73;37.33
77227;BME280;66234;47.642;19.144;2023-04-03T13:08:52;100340.50;;;11.82;39.12
77227;BME280;66234;47.642;19.144;2023-04-03T13:11:56;100338.38;;;11.97;38.58
77227;BME280;66234;47.642;19.144;2023-04-03T13:15:11;100334.22;;;12.01;37.25
77227;BME280;66234;47.642;19.144;2023-04-03T13:18:29;100338.09;;;11.74;37.47
77227;BME280;66234;47.642;19.144;2023-04-03T13:21:33;100327.81;;;12.02;37.40
77227;BME280;66234;47.642;19.144;2023-04-03T13:24:40;100324.16;;;12.34;37.05
77227;BME280;66234;47.642;19.144;2023-04-03T13:27:43;100316.06;;;12.65;36.33
77227;BME280;66234;47.642;19.144;2023-04-03T13:34:18;100304.81;;;13.42;33.88
77227;BME280;66234;47.642;19.144;2023-04-03T13:37:28;100298.19;;;13.92;32.77
77227;BME280;66234;47.642;19.144;2023-04-03T13:40:31;100303.13;;;15.47;31.57
77227;BME280;66234;47.642;19.144;2023-04-03T13:43:46;100288.88;;;17.51;27.90
77227;BME280;66234;47.642;19.144;2023-04-03T13:46:49;100298.69;;;17.57;27.08
77227;BME280;66234;47.642;19.144;2023-04-03T13:53:12;100300.44;;;15.24;31.25
77227;BME280;66234;47.642;19.144;2023-04-03T13:56:21;100294.91;;;15.30;29.99
77227;BME280;66234;47.642;19.144;2023-04-03T14:02:33;100279.81;;;15.18;31.17
77227;BME280;66234;47.642;19.144;2023-04-03T14:05:36;100279.13;;;14.64;31.82
77227;BME280;66234;47.642;19.144;2023-04-03T14:08:39;100279.59;;;13.91;33.72
77227;BME280;66234;47.642;19.144;2023-04-03T14:11:46;100276.72;;;13.74;33.78
77227;BME280;66234;47.642;19.144;2023-04-03T14:14:49;100277.97;;;14.72;31.12
77227;BME280;66234;47.642;19.144;2023-04-03T14:17:52;100272.91;;;15.10;31.31
77227;BME280;66234;47.642;19.144;2023-04-03T14:20:55;100273.81;;;14.35;32.81
77227;BME280;66234;47.642;19.144;2023-04-03T14:23:58;100279.38;;;13.63;34.82
77227;BME280;66234;47.642;19.144;2023-04-03T14:27:00;100274.66;;;13.40;36.62
77227;BME280;66234;47.642;19.144;2023-04-03T14:30:07;100278.78;;;13.43;33.94
77227;BME280;66234;47.642;19.144;2023-04-03T14:33:15;100275.78;;;13.33;35.85
77227;BME280;66234;47.642;19.144;2023-04-03T14:36:23;100275.78;;;13.33;35.75
77227;BME280;66234;47.642;19.144;2023-04-03T14:39:27;100272.66;;;13.36;36.00
77227;BME280;66234;47.642;19.144;2023-04-03T14:42:33;100274.63;;;13.29;34.93
77227;BME280;66234;47.642;19.144;2023-04-03T14:45:36;100275.00;;;12.89;37.04
77227;BME280;66234;47.642;19.144;2023-04-03T14:48:39;100279.59;;;12.58;37.20
77227;BME280;66234;47.642;19.144;2023-04-03T14:51:43;100277.63;;;12.47;39.46
77227;BME280;66234;47.642;19.144;2023-04-03T14:54:49;100284.16;;;12.33;39.46
77227;BME280;66234;47.642;19.144;2023-04-03T14:57:55;100286.38;;;12.11;40.38
77227;BME280;66234;47.642;19.144;2023-04-03T15:00:59;100289.72;;;12.00;40.42
77227;BME280;66234;47.642;19.144;2023-04-03T15:04:01;100284.75;;;11.66;40.92
77227;BME280;66234;47.642;19.144;2023-04-03T15:07:08;100287.34;;;11.79;40.22
77227;BME280;66234;47.642;19.144;2023-04-03T15:10:20;100294.84;;;11.64;41.00
77227;BME280;66234;47.642;19.144;2023-04-03T15:13:23;100291.16;;;11.52;40.19
77227;BME280;66234;47.642;19.144;2023-04-03T15:16:26;100297.59;;;11.38;41.11
77227;BME280;66234;47.642;19.144;2023-04-03T15:19:34;100289.38;;;11.26;41.12
77227;BME280;66234;47.642;19.144;2023-04-03T15:22:38;100292.69;;;11.22;42.18
77227;BME280;66234;47.642;19.144;2023-04-03T15:25:43;100288.38;;;11.14;42.59
77227;BME280;66234;47.642;19.144;2023-04-03T15:28:46;100288.81;;;10.98;41.54
77227;BME280;66234;47.642;19.144;2023-04-03T15:31:49;100291.75;;;10.84;42.86
77227;BME280;66234;47.642;19.144;2023-04-03T15:34:55;100286.00;;;10.28;39.84
77227;BME280;66234;47.642;19.144;2023-04-03T15:37:58;100293.66;;;9.84;39.04
77227;BME280;66234;47.642;19.144;2023-04-03T15:41:00;100290.66;;;9.46;40.32
77227;BME280;66234;47.642;19.144;2023-04-03T15:44:03;100299.44;;;9.34;40.58
77227;BME280;66234;47.642;19.144;2023-04-03T15:47:06;100303.34;;;9.04;40.51
77227;BME280;66234;47.642;19.144;2023-04-03T15:50:09;100304.53;;;8.95;41.54
77227;BME280;66234;47.642;19.144;2023-04-03T15:53:12;100307.16;;;8.88;41.71
77227;BME280;66234;47.642;19.144;2023-04-03T15:56:14;100311.81;;;8.80;41.60
77227;BME280;66234;47.642;19.144;2023-04-03T15:59:18;100311.31;;;8.70;42.37
77227;BME280;66234;47.642;19.144;2023-04-03T16:02:22;100311.28;;;8.63;42.62
77227;BME280;66234;47.642;19.144;2023-04-03T16:05:25;100316.78;;;8.62;43.60
77227;BME280;66234;47.642;19.144;2023-04-03T16:08:28;100318.38;;;8.56;44.26
77227;BME280;66234;47.642;19.144;2023-04-03T16:11:30;100312.88;;;8.58;44.20
77227;BME280;66234;47.642;19.144;2023-04-03T16:14:33;100319.59;;;8.54;44.05
77227;BME280;66234;47.642;19.144;2023-04-03T16:17:39;100322.22;;;8.47;44.28
77227;BME280;66234;47.642;19.144;2023-04-03T16:20:43;100323.69;;;8.28;42.07
77227;BME280;66234;47.642;19.144;2023-04-03T16:23:46;100324.44;;;8.08;41.80
77227;BME280;66234;47.642;19.144;2023-04-03T16:26:48;100322.09;;;7.98;42.25
77227;BME280;66234;47.642;19.144;2023-04-03T16:29:51;100328.75;;;7.88;42.48
77227;BME280;66234;47.642;19.144;2023-04-03T16:32:54;100329.41;;;7.75;42.47
77227;BME280;66234;47.642;19.144;2023-04-03T16:35:58;100348.69;;;7.77;43.17
77227;BME280;66234;47.642;19.144;2023-04-03T16:39:01;100354.66;;;7.79;43.61
77227;BME280;66234;47.642;19.144;2023-04-03T16:42:03;100364.75;;;7.84;43.09
77227;BME280;66234;47.642;19.144;2023-04-03T16:45:07;100369.03;;;7.85;42.48
77227;BME280;66234;47.642;19.144;2023-04-03T16:48:10;100375.00;;;7.87;42.04
77227;BME280;66234;47.642;19.144;2023-04-03T16:51:13;100375.69;;;7.74;42.57
77227;BME280;66234;47.642;19.144;2023-04-03T16:54:16;100383.56;;;7.82;42.64
77227;BME280;66234;47.642;19.144;2023-04-03T16:57:18;100383.94;;;7.79;42.71
77227;BME280;66234;47.642;19.144;2023-04-03T17:00:22;100390.63;;;7.75;43.55
77227;BME280;66234;47.642;19.144;2023-04-03T17:03:25;100393.94;;;7.77;43.19
77227;BME280;66234;47.642;19.144;2023-04-03T17:06:31;100395.59;;;7.64;42.99
77227;BME280;66234;47.642;19.144;2023-04-03T17:09:34;100403.03;;;7.54;43.47
77227;BME280;66234;47.642;19.144;2023-04-03T17:12:36;100413.13;;;7.44;43.35
77227;BME280;66234;47.642;19.144;2023-04-03T17:15:39;100426.81;;;7.41;43.57
77227;BME280;66234;47.642;19.144;2023-04-03T17:18:43;100430.81;;;7.37;43.45
77227;BME280;66234;47.642;19.144;2023-04-03T17:21:47;100432.56;;;7.30;43.89
77227;BME280;66234;47.642;19.144;2023-04-03T17:24:50;100441.44;;;7.22;44.07
77227;BME280;66234;47.642;19.144;2023-04-03T17:27:52;100446.94;;;7.21;44.60